Rachel — D5CG4 — position and weather

sailwx.info

Track history (hours):
 
Tides and Currents Weather Stations Pressure Air Temp Water Temp Dewpoint Dewpoint Depression Visibility Wind Speed Wind Dir Waves Ship Positions

Rachel

Last reported at 2014-Nov-10 19:06 UTC. Time now 2014-Nov-27 10:25 UTC.
Position N 01°11' E 103°40'.
Warning: this ship's position is 16 days out of date.

Length 189 m; draft 9 m.

Type: Cargo ship. MMSI: 636015692.

Date/timePositionNaut miles runAvg speedWind from/ knotsBaromVisibWave heightAir tempDewpointWater temp
2014-Nov-10 19:06N 01°11' E 103°40'6 8.6
2014-Nov-10 18:27N 01°09' E 103°46'910.0
2014-Nov-10 17:33N 01°13' E 103°54'8 7.9
2014-Nov-10 16:32N 01°17' E 104°00'0 0.1
2014-Nov-10 15:23N 01°17' E 104°00'0 0.1
2014-Nov-10 13:29N 01°17' E 104°01'0 0.0
2014-Nov-10 12:29N 01°17' E 104°01'0 0.0
2014-Nov-10 10:14N 01°17' E 104°01'0 0.0
2014-Nov-10 09:20N 01°17' E 104°01'0 0.1
2014-Nov-10 08:08N 01°17' E 104°01'0 0.0
2014-Nov-10 07:26N 01°17' E 104°01'0 0.0
2014-Nov-10 06:20N 01°17' E 104°01'0 0.2
2014-Nov-10 05:20N 01°17' E 104°00'0 0.0
2014-Nov-10 04:05N 01°17' E 104°00'0 0.0
2014-Nov-10 03:32N 01°17' E 104°00'0 0.0
2014-Nov-10 01:32N 01°17' E 104°00'0 0.0
2014-Nov-09 23:33N 01°17' E 104°00'2 1.9
2014-Nov-09 22:33N 01°16' E 104°01'7 7.2
2014-Nov-09 21:33N 01°16' E 104°09'  
2014-Nov-07 01:13S 04°32' E 114°06'2211.7
2014-Nov-06 23:21S 04°33' E 114°28'1011.7
2014-Nov-06 22:29S 04°34' E 114°38'1211.8
2014-Nov-06 21:29S 04°34' E 114°50'  
Track history (hours):
 
Tides and Currents Weather Stations Pressure Air Temp Water Temp Dewpoint Dewpoint Depression Visibility Wind Speed Wind Dir Waves Ship Positions

Rachel

Last reported at 2014-Nov-10 19:06 UTC. Time now 2014-Nov-27 10:25 UTC.
Position N 01°11' E 103°40'.
Warning: this ship's position is 16 days out of date.

Length 189 m; draft 9 m.

Type: Cargo ship. MMSI: 636015692.

Date/timePositionNaut miles runAvg speedWind from/ knotsBaromVisibWave heightAir tempDewpointWater temp
2014-Nov-10 19:06N 01°11' E 103°40'6 8.6
2014-Nov-10 18:27N 01°09' E 103°46'910.0
2014-Nov-10 17:33N 01°13' E 103°54'8 7.9
2014-Nov-10 16:32N 01°17' E 104°00'0 0.1
2014-Nov-10 15:23N 01°17' E 104°00'0 0.1
2014-Nov-10 13:29N 01°17' E 104°01'0 0.0
2014-Nov-10 12:29N 01°17' E 104°01'0 0.0
2014-Nov-10 10:14N 01°17' E 104°01'0 0.0
2014-Nov-10 09:20N 01°17' E 104°01'0 0.1
2014-Nov-10 08:08N 01°17' E 104°01'0 0.0
2014-Nov-10 07:26N 01°17' E 104°01'0 0.0
2014-Nov-10 06:20N 01°17' E 104°01'0 0.2
2014-Nov-10 05:20N 01°17' E 104°00'0 0.0
2014-Nov-10 04:05N 01°17' E 104°00'0 0.0
2014-Nov-10 03:32N 01°17' E 104°00'0 0.0
2014-Nov-10 01:32N 01°17' E 104°00'0 0.0
2014-Nov-09 23:33N 01°17' E 104°00'2 1.9
2014-Nov-09 22:33N 01°16' E 104°01'7 7.2
2014-Nov-09 21:33N 01°16' E 104°09'  
2014-Nov-07 01:13S 04°32' E 114°06'2211.7
2014-Nov-06 23:21S 04°33' E 114°28'1011.7
2014-Nov-06 22:29S 04°34' E 114°38'1211.8
2014-Nov-06 21:29S 04°34' E 114°50'  

Dump ship's entire track history